AirNav   TITAN Aviation Fuels
 
 1646 users online  

WN00 Kimshan Ranch Airport
Quilcene, Washington, USA

GOING TO QUILCENE?


FAA INFORMATION EFFECTIVE 04 NOVEMBER 2021

Location

FAA Identifier: WN00
Lat/Long: 47-50-24.3290N 122-51-34.5900W
47-50.405483N 122-51.576500W
47.8400914,-122.8596083
(estimated)
Elevation: 80 ft. / 24 m (estimated)
Variation: 21E (1985)
From city: 1 mile NE of QUILCENE, WA
Time zone: UTC -7 (UTC -8 during Standard Time)
Zip code: 98376

Airport Operations

Airport use: Private use. Permission required prior to landing
Activation date: 11/1969
Control tower: no
ARTCC: SEATTLE CENTER
FSS: SEATTLE FLIGHT SERVICE STATION
Attendance: UNATNDD
Wind indicator: yes
Segmented circle: no

Airport Communications

WX AWOS-3P at 0S9 (13 nm N): 119.025 (360-379-1199)

Nearby radio navigation aids

VOR radial/distance  VOR name  Freq  Var
PAEr238/23.9PAINE VOR/DME110.6020E
CVVr174/24.9PENN COVE VOR/DME117.2019E
SEAr299/32.9SEATTLE VORTAC116.8019E

 
NDB name  Hdg/Dist  Freq  Var  ID
EDIZ HOOK112/28.333817ENOW -. --- .--

Airport Services

Runway Information

Runway 17/35

Dimensions: 1300 x 40 ft. / 396 x 12 m
Surface: turf
RUNWAY 17  RUNWAY 35
Traffic pattern: leftleft
Obstructions: 50 ft. treesnone

Airport Ownership and Management from official FAA records

Ownership: Privately-owned
Owner: ORVILLE FISK
PO BOX 381
QUILCENE, WA 98376
Phone 360-765-3740
Manager: ORVILLE FISK
PO BOX 381
QUILCENE, WA 98376
Phone 360-765-3740

Airport Operational Statistics

Aircraft based on the field: 1
Single engine airplanes: 1
    

Additional Remarks

FOR CD CTC SEATTLE APCH AT 206-214-4794.

Instrument Procedures

There are no published instrument procedures at WN00.

Some nearby airports with instrument procedures:

0S9 - Jefferson County International Airport (13 nm N)
KPWT - Bremerton National Airport (21 nm S)
KPAE - Snohomish County Airport (Paine Field) (24 nm E)
KOKH - AJ Eisenberg Airport (26 nm N)
KNOW - Port Angeles Coast Guard Air Station Airport (29 nm NW)
 
Loc | Ops | Rwys | IFR | FBO | Links
Com | Nav | Svcs | Stats | Notes
Area around WN00 (Kimshan Ranch Airport)
 
Road maps at: MapQuest Bing Google
 
Aerial photo
No photo
 
Sectional chart

 
Airport distance calculator
Flying to Kimshan Ranch Airport? Find the distance to fly.

From to WN00

Sunrise and sunset
Times for 30-Nov-2021
 Local
(UTC-8)
 Zulu
(UTC)
Morning civil twilight07:0415:04
Sunrise07:3915:39
Sunset16:2100:21
Evening civil twilight16:5600:56

Current date and time
Zulu (UTC)  30-Nov-2021 18:05:52
Local (UTC-8)  30-Nov-2021 10:05:52
 
METAR
K0S9 
13nm N 
301755Z AUTO 14006KT 10SM CLR 10/09 A3013 RMK AO2
KPWT 
21nm S 
301756Z AUTO 22011KT 8SM -RA BKN005 OVC012 10/09 A3022 RMK AO2 RAB21 CIG 003V008 SLP239 P0000 60006 T01000094 10106 20094 53022
KPAE 
24nm E 
301753Z 18018G27KT 7SM -RA FEW024 BKN060 OVC070 11/07 A3019 RMK AO2 PK WND 21032/1733 RAB06 SLP223 P0000 60001 T01060072 10117 20100 53024
TAF
KPWT 
21nm S 
300520Z 3006/0106 19006KT P6SM BKN005 OVC020 FM301200 18012KT P6SM VCSH OVC020 FM302100 19012G20KT 4SM -RA BR OVC015
KPAE 
24nm E 
301120Z 3012/0112 16014G24KT P6SM VCSH SCT008 OVC025 TEMPO 3012/3015 6SM -RA BR BKN007 OVC022 FM301500 17013G22KT 6SM -RA BR OVC009 FM302200 17012G22KT 4SM -RA BR OVC010 FM010900 18014G22KT P6SM VCSH BKN014
NOTAMs
Click for the latest NOTAMs
NOTAMs are issued by the DoD/FAA and will open in a separate window not controlled by AirNav.

 

 
 

Would you like to see your business listed on this page?

 If your business provides an interesting product or service to pilots, flight crews, aircraft, or users of the Kimshan Ranch Airport, you should consider listing it here.  To start the listing process, click on the button below
 
Add a business
 

Other Pages about Kimshan Ranch Airport

Update a link
 
Copyright © AirNav, LLC. All rights reserved. Privacy Policy  Contact